Баландино

Карта отелей и гостиниц, располагающихся рядом с аэропортом Баландино :

Баландино
Челябинск
Челябинская область 55° 18' 20.7612" N, 61° 30' 12.5388" E
Код аэродрома ИКАО: 
USCC
Код аэродрома RU: 
УСЦЦ
Координаты: 
N55.30577° E061.50348°
Превышение над уровнем моря : 
234
Основная полоса: 
09/27
Курс магнитный: 
090,3/270,3
Длина основной ВПП: 
3204
Ширина основной ВПП: 
60
Покрытие основной ВПП: 
Твёрдое
Освещение ВПП: 
Постоянное
Тип: 
Аэродром
Класс аэродрома: 
Международный
Принадлежность: 
ГА
Статус: 
Действующий
Сайт: 
www.aeroport-74.ru
Страна: 
Россия
Регион: 
Челябинская область
Город: 
Челябинск
Дополнительная информация: 
Оператор: ОАО «Челябинское авиапредприятие». Нкр.=(400)м.
Погода: 

Авиационная погода в Челябинске

Регион: 
Погода METAR: 
USCC 281930Z 31001MPS 9999 FEW040 08/07 Q1033 R09/000060 NOSIG RMK QFE754
Время наблюдения: 
2020-09-28T19:30:00Z
Температура C: 
8.0
Точка росы: 
7.0
Направление ветра: 
310
Скорость ветра (узлы): 
2
Метеорологическая видимость: 
6.21
Условия полета: 
VFR
Аэропорт подробнее: 

Найти трансфер

С помощью этой формы Вы можете найти трансфер из аэропорта Баландино в город, аэропорт или вокзал:

Карта места

Javascript is required to view this map.

Погода в аэропортах:

Авиационная погода в Чорлу

Регион: 
Погода METAR: 
LTBU 281950Z 16011KT 9999 -SHRA SCT040 BKN100 21/18 Q1014 RMK RWY22 17013KT
Время наблюдения: 
2020-09-28T19:50:00Z
Температура C: 
21.0
Точка росы: 
18.0
Направление ветра: 
160
Скорость ветра (узлы): 
11
Метеорологическая видимость: 
6.21
Явления погоды: 
-SHRA
Условия полета: 
VFR

Авиационная погода в Елизово

Регион: 
Погода METAR: 
UHPP 281930Z 03004MPS 290V100 9999 -SHRA SCT040CB 06/05 Q1003 R16R/290345 NOSIG RMK MT OBSC QFE749/0999
Время наблюдения: 
2020-09-28T19:30:00Z
Температура C: 
6.0
Точка росы: 
5.0
Направление ветра: 
30
Скорость ветра (узлы): 
8
Метеорологическая видимость: 
6.21
Явления погоды: 
-SHRA
Условия полета: 
VFR
Аэропорт подробнее: 

Авиационная погода в Богашево

Регион: 
Погода METAR: 
UNTT 281930Z 26003MPS 8000 -SHRA FEW021CB 09/06 Q1018 R21/090060 NOSIG RMK QFE748
Время наблюдения: 
2020-09-28T19:30:00Z
Температура C: 
9.0
Точка росы: 
6.0
Направление ветра: 
260
Скорость ветра (узлы): 
6
Метеорологическая видимость: 
4.97
Явления погоды: 
-SHRA
Условия полета: 
MVFR
Аэропорт подробнее: 

Авиационная погода в Кневичи

Регион: 
Погода METAR: 
UHWW 281930Z 35003MPS 5000 BR BKN020 15/15 Q1011 R25L/0///70 NOSIG RMK QFE757
Время наблюдения: 
2020-09-28T19:30:00Z
Температура C: 
15.0
Точка росы: 
15.0
Направление ветра: 
350
Скорость ветра (узлы): 
6
Метеорологическая видимость: 
3.11
Явления погоды: 
BR
Условия полета: 
MVFR
Аэропорт подробнее: